createdAt,value
2019-02-09T00:00:27.911Z,8.38
2019-02-09T00:02:56.339Z,8.42
2019-02-09T00:05:24.828Z,8.39
2019-02-09T00:07:53.323Z,8.38
2019-02-09T00:10:21.882Z,8.39
2019-02-09T00:12:50.353Z,8.33
2019-02-09T00:15:18.857Z,8.31
2019-02-09T00:17:47.338Z,8.29
2019-02-09T00:20:20.030Z,8.27
2019-02-09T00:22:48.699Z,8.26
2019-02-09T00:25:21.752Z,8.37
2019-02-09T00:27:50.351Z,8.38
2019-02-09T00:30:20.925Z,8.44
2019-02-09T00:32:49.403Z,8.44
2019-02-09T00:35:24.031Z,8.43
2019-02-09T00:37:53.012Z,8.38
2019-02-09T00:40:24.021Z,8.41
2019-02-09T00:42:52.523Z,8.46
2019-02-09T00:45:23.187Z,8.48
2019-02-09T00:47:51.851Z,8.53
2019-02-09T00:50:21.156Z,8.55
2019-02-09T00:52:49.732Z,8.55
2019-02-09T00:55:23.864Z,8.58
2019-02-09T00:57:52.451Z,8.56
2019-02-09T01:00:26.033Z,8.54
2019-02-09T01:02:55.431Z,8.51
2019-02-09T01:05:26.917Z,8.52
2019-02-09T01:07:55.397Z,8.62
2019-02-09T01:10:26.664Z,8.62
2019-02-09T01:12:55.126Z,8.58
2019-02-09T01:15:23.667Z,8.56
2019-02-09T01:17:52.347Z,8.57
2019-02-09T01:20:23.220Z,8.52
2019-02-09T01:22:53.231Z,8.51
2019-02-09T01:25:21.795Z,8.49
2019-02-09T01:27:50.298Z,8.52
2019-02-09T01:30:21.133Z,8.53
2019-02-09T01:32:51.148Z,8.55
2019-02-09T01:35:20.913Z,8.49
2019-02-09T01:37:50.580Z,8.50
2019-02-09T01:40:21.362Z,8.53
2019-02-09T01:42:50.624Z,8.51
2019-02-09T01:45:32.829Z,8.53
2019-02-09T01:48:01.803Z,8.52
2019-02-09T01:50:32.377Z,8.52
2019-02-09T01:53:01.427Z,8.51
2019-02-09T01:55:29.992Z,8.48
2019-02-09T01:57:59.600Z,8.51
2019-02-09T02:00:30.771Z,8.51
2019-02-09T02:02:59.759Z,8.47
2019-02-09T02:05:28.552Z,8.51
2019-02-09T02:07:56.983Z,8.50
2019-02-09T02:10:33.555Z,8.42
2019-02-09T02:13:03.426Z,8.41
2019-02-09T02:15:32.566Z,8.39
2019-02-09T02:18:01.275Z,8.37
2019-02-09T02:20:33.872Z,8.33
2019-02-09T02:23:02.557Z,8.36
2019-02-09T02:25:31.161Z,8.34
2019-02-09T02:27:59.630Z,8.30
2019-02-09T02:30:30.743Z,8.36
2019-02-09T02:32:59.572Z,8.28
2019-02-09T02:35:28.194Z,8.30
2019-02-09T02:37:56.739Z,8.26
2019-02-09T02:40:25.203Z,8.32
2019-02-09T02:42:54.093Z,8.33
2019-02-09T02:45:24.391Z,8.30
2019-02-09T02:47:52.993Z,8.31
2019-02-09T02:50:23.712Z,8.30
2019-02-09T02:52:52.518Z,8.36
2019-02-09T02:55:26.435Z,8.40
2019-02-09T02:57:55.105Z,8.35
2019-02-09T03:00:32.158Z,8.37
2019-02-09T03:03:00.428Z,8.39
2019-02-09T03:05:30.008Z,8.40
2019-02-09T03:07:58.678Z,8.40
2019-02-09T03:10:27.619Z,8.37
2019-02-09T03:12:56.152Z,8.35
2019-02-09T03:15:30.444Z,8.34
2019-02-09T03:17:59.046Z,8.35
2019-02-09T03:20:27.644Z,8.31
2019-02-09T03:22:56.051Z,8.36
2019-02-09T03:25:26.743Z,8.38
2019-02-09T03:27:55.666Z,8.35
2019-02-09T03:30:25.474Z,8.34
2019-02-09T03:32:54.007Z,8.29
2019-02-09T03:35:23.008Z,8.24
2019-02-09T03:37:51.796Z,8.15
2019-02-09T03:40:25.627Z,7.99
2019-02-09T03:42:54.542Z,7.87
2019-02-09T03:45:33.988Z,7.77
2019-02-09T03:48:02.974Z,7.78
2019-02-09T03:50:33.232Z,7.73
2019-02-09T03:53:02.266Z,7.76
2019-02-09T03:55:30.929Z,7.63
2019-02-09T03:57:59.468Z,7.53
2019-02-09T04:00:32.238Z,7.49
2019-02-09T04:03:02.540Z,7.43
2019-02-09T04:05:31.148Z,7.45
2019-02-09T04:08:00.041Z,7.49
2019-02-09T04:10:30.129Z,7.52
2019-02-09T04:12:58.705Z,7.43
2019-02-09T04:15:29.112Z,7.41
2019-02-09T04:17:58.223Z,7.41
2019-02-09T04:20:27.256Z,7.42
2019-02-09T04:22:56.019Z,7.35
2019-02-09T04:25:25.932Z,7.27
2019-02-09T04:27:54.558Z,7.20
2019-02-09T04:30:31.322Z,7.25
2019-02-09T04:32:59.838Z,7.25
2019-02-09T04:35:28.392Z,7.22
2019-02-09T04:37:56.952Z,7.15
2019-02-09T04:40:27.615Z,7.15
2019-02-09T04:42:56.206Z,7.07
2019-02-09T04:45:25.081Z,7.04
2019-02-09T04:47:53.663Z,7.00
2019-02-09T04:50:22.224Z,6.98
2019-02-09T04:52:50.701Z,6.89
2019-02-09T04:55:24.529Z,6.85
2019-02-09T04:57:53.607Z,6.78
2019-02-09T05:00:24.875Z,6.80
2019-02-09T05:02:54.292Z,6.81
2019-02-09T05:05:22.749Z,6.74
2019-02-09T05:07:51.211Z,6.70
2019-02-09T05:10:21.956Z,6.69
2019-02-09T05:12:50.436Z,6.66
2019-02-09T05:15:21.498Z,6.61
2019-02-09T05:17:50.705Z,6.67
2019-02-09T05:20:21.314Z,6.64
2019-02-09T05:22:49.992Z,6.65
2019-02-09T05:25:19.272Z,6.68
2019-02-09T05:27:48.309Z,6.69
2019-02-09T05:30:19.879Z,6.79
2019-02-09T05:32:48.431Z,6.79
2019-02-09T05:35:17.525Z,6.79
2019-02-09T05:37:46.027Z,6.84
2019-02-09T05:40:20.509Z,6.83
2019-02-09T05:42:48.939Z,6.87
2019-02-09T05:45:20.421Z,6.86
2019-02-09T05:47:48.950Z,6.89
2019-02-09T05:50:19.641Z,6.91
2019-02-09T05:52:48.577Z,6.90
2019-02-09T05:55:19.334Z,6.95
2019-02-09T05:57:48.018Z,6.96
2019-02-09T06:00:21.021Z,6.96
2019-02-09T06:02:49.540Z,6.99
2019-02-09T06:05:18.378Z,6.92
2019-02-09T06:07:46.929Z,6.94
2019-02-09T06:10:18.064Z,6.95
2019-02-09T06:12:46.876Z,7.06
2019-02-09T06:15:18.618Z,7.08
2019-02-09T06:17:50.882Z,7.03
2019-02-09T06:20:28.213Z,7.07
2019-02-09T06:22:56.789Z,7.12
2019-02-09T06:25:25.659Z,7.11
2019-02-09T06:27:54.399Z,7.14
2019-02-09T06:30:28.391Z,7.14
2019-02-09T06:32:57.088Z,7.07
2019-02-09T06:35:25.775Z,6.95
2019-02-09T06:37:54.808Z,6.95
2019-02-09T06:40:24.719Z,6.86
2019-02-09T06:42:53.415Z,6.82
2019-02-09T06:45:24.469Z,6.78
2019-02-09T06:47:53.442Z,6.74
2019-02-09T06:50:30.539Z,6.75
2019-02-09T06:52:59.068Z,6.72
2019-02-09T06:55:27.608Z,6.68
2019-02-09T06:57:56.097Z,6.73
2019-02-09T07:00:24.571Z,6.81
2019-02-09T07:02:54.571Z,6.87
2019-02-09T07:05:23.681Z,6.87
2019-02-09T07:07:52.340Z,6.99
2019-02-09T07:10:27.091Z,7.04
2019-02-09T07:12:56.228Z,7.06
2019-02-09T07:15:29.793Z,7.06
2019-02-09T07:17:59.040Z,7.08
2019-02-09T07:20:28.254Z,7.03
2019-02-09T07:22:56.851Z,7.05
2019-02-09T07:25:25.998Z,7.07
2019-02-09T07:27:54.646Z,6.99
2019-02-09T07:30:34.249Z,7.09
2019-02-09T07:33:02.741Z,7.16
2019-02-09T07:35:31.328Z,7.17
2019-02-09T07:37:59.765Z,7.16
2019-02-09T07:40:28.940Z,7.16
2019-02-09T07:42:57.548Z,7.22
2019-02-09T07:45:34.238Z,7.28
2019-02-09T07:48:02.701Z,7.25
2019-02-09T07:50:31.293Z,7.21
2019-02-09T07:52:59.791Z,7.19
2019-02-09T07:55:28.379Z,7.15
2019-02-09T07:57:56.992Z,7.18
2019-02-09T08:00:30.320Z,7.14
2019-02-09T08:02:59.821Z,7.17
2019-02-09T08:05:30.572Z,7.14
2019-02-09T08:07:59.493Z,7.16
2019-02-09T08:10:38.972Z,7.18
2019-02-09T08:13:08.827Z,7.24
2019-02-09T08:15:37.372Z,7.30
2019-02-09T08:18:07.726Z,7.26
2019-02-09T08:20:36.367Z,7.78
2019-02-09T08:23:10.050Z,8.23
2019-02-09T08:25:40.225Z,8.19
2019-02-09T08:28:11.365Z,8.07
2019-02-09T08:30:44.984Z,8.02
2019-02-09T08:33:13.575Z,7.86
2019-02-09T08:35:42.154Z,7.84
2019-02-09T08:38:12.070Z,7.82
2019-02-09T08:40:40.670Z,7.91
2019-02-09T08:43:09.233Z,7.85
2019-02-09T08:45:37.861Z,8.02
2019-02-09T08:48:06.532Z,7.86
2019-02-09T08:50:43.499Z,7.86
2019-02-09T08:53:12.071Z,7.92
2019-02-09T08:55:40.640Z,8.50
2019-02-09T08:58:09.219Z,8.86
2019-02-09T09:00:38.572Z,9.20
2019-02-09T09:03:07.217Z,9.50
2019-02-09T09:05:36.030Z,9.90
2019-02-09T09:08:05.088Z,10.23
2019-02-09T09:10:33.689Z,10.54
2019-02-09T09:13:03.099Z,10.96
2019-02-09T09:15:43.269Z,10.59
2019-02-09T09:18:11.812Z,10.35
2019-02-09T09:20:45.867Z,10.16
2019-02-09T09:23:14.264Z,9.99
2019-02-09T09:25:42.906Z,9.78
2019-02-09T09:28:11.478Z,9.71
2019-02-09T09:30:39.936Z,9.59
2019-02-09T09:33:08.477Z,9.79
2019-02-09T09:35:36.915Z,10.13
2019-02-09T09:38:07.595Z,10.13
2019-02-09T09:40:42.059Z,10.62
2019-02-09T09:43:10.810Z,10.89
2019-02-09T09:45:41.465Z,10.94
2019-02-09T09:48:12.849Z,10.93
2019-02-09T09:50:41.449Z,10.88
2019-02-09T09:53:10.339Z,10.53
2019-02-09T09:55:38.842Z,10.19
2019-02-09T09:58:07.322Z,10.17
2019-02-09T10:00:35.882Z,9.85
2019-02-09T10:03:04.567Z,10.43
2019-02-09T10:05:33.050Z,11.01
2019-02-09T10:08:01.493Z,10.81
2019-02-09T10:10:29.994Z,10.93
2019-02-09T10:12:58.519Z,10.95
2019-02-09T10:15:28.470Z,10.78
2019-02-09T10:17:57.165Z,11.28
2019-02-09T10:20:27.143Z,11.07
2019-02-09T10:22:55.597Z,10.96
2019-02-09T10:25:24.501Z,10.70
2019-02-09T10:27:57.336Z,10.50
2019-02-09T10:30:28.049Z,10.30
2019-02-09T10:32:56.845Z,10.30
2019-02-09T10:35:25.607Z,10.31
2019-02-09T10:37:54.912Z,10.08
2019-02-09T10:40:29.540Z,10.17
2019-02-09T10:42:58.684Z,10.19
2019-02-09T10:45:29.815Z,10.22
2019-02-09T10:48:00.572Z,10.18
2019-02-09T10:50:34.812Z,10.38
2019-02-09T10:53:03.808Z,10.35
2019-02-09T10:55:32.742Z,10.46
2019-02-09T10:58:01.397Z,10.33
2019-02-09T11:00:33.454Z,10.20
2019-02-09T11:03:02.149Z,10.24
2019-02-09T11:05:30.836Z,10.14
2019-02-09T11:07:59.924Z,10.20
2019-02-09T11:10:29.202Z,10.11
2019-02-09T11:12:58.120Z,9.94
2019-02-09T11:15:26.705Z,10.02
2019-02-09T11:17:55.458Z,10.30
2019-02-09T11:20:25.309Z,10.39
2019-02-09T11:22:54.134Z,10.39
2019-02-09T11:25:24.802Z,10.34
2019-02-09T11:27:54.117Z,10.34
2019-02-09T11:30:24.956Z,10.23
2019-02-09T11:33:01.666Z,10.54
2019-02-09T11:35:24.166Z,10.37
2019-02-09T11:37:53.135Z,10.44
2019-02-09T11:40:33.012Z,10.44
2019-02-09T11:43:02.803Z,10.43
2019-02-09T11:45:33.246Z,10.15
2019-02-09T11:48:02.109Z,10.25
2019-02-09T11:50:31.440Z,10.23
2019-02-09T11:53:00.124Z,10.14
2019-02-09T11:55:29.316Z,10.13
2019-02-09T11:57:58.118Z,10.12
2019-02-09T12:00:29.550Z,10.13
2019-02-09T12:03:03.064Z,10.27
2019-02-09T12:05:28.743Z,10.41
2019-02-09T12:07:57.443Z,10.44
2019-02-09T12:10:29.830Z,10.71
2019-02-09T12:12:58.905Z,10.82
2019-02-09T12:15:30.369Z,10.89
2019-02-09T12:17:59.041Z,10.82
2019-02-09T12:20:27.748Z,10.62
2019-02-09T12:22:56.431Z,10.68
2019-02-09T12:25:37.071Z,10.66
2019-02-09T12:28:09.455Z,10.84
2019-02-09T12:30:39.903Z,10.92
2019-02-09T12:33:11.239Z,11.04
2019-02-09T12:35:40.326Z,11.10
2019-02-09T12:38:10.442Z,11.15
2019-02-09T12:40:39.775Z,11.23
2019-02-09T12:43:09.076Z,11.26
2019-02-09T12:45:42.456Z,11.20
2019-02-09T12:48:12.162Z,11.03
2019-02-09T12:50:40.811Z,10.77
2019-02-09T12:53:10.446Z,10.69
2019-02-09T12:55:39.182Z,10.66
2019-02-09T12:58:08.230Z,10.72
2019-02-09T13:00:38.632Z,10.76
2019-02-09T13:03:16.395Z,10.83
2019-02-09T13:05:44.950Z,10.94
2019-02-09T13:08:13.427Z,10.78
2019-02-09T13:10:41.951Z,10.76
2019-02-09T13:13:10.577Z,10.79
2019-02-09T13:15:39.031Z,10.74
2019-02-09T13:18:07.937Z,10.76
2019-02-09T13:20:36.600Z,10.78
2019-02-09T13:23:07.634Z,10.75
2019-02-09T13:25:36.102Z,10.72
2019-02-09T13:28:05.479Z,10.64
2019-02-09T13:30:42.326Z,10.56
2019-02-09T13:33:12.445Z,10.56
2019-02-09T13:35:41.160Z,10.52
2019-02-09T13:38:09.729Z,10.50
2019-02-09T13:40:38.216Z,10.48
2019-02-09T13:43:06.856Z,10.42
2019-02-09T13:45:43.852Z,10.43
2019-02-09T13:48:12.457Z,10.42
2019-02-09T13:50:41.150Z,10.19
2019-02-09T13:53:10.135Z,9.88
2019-02-09T13:55:38.701Z,9.72
2019-02-09T13:58:07.206Z,9.71
2019-02-09T14:00:35.889Z,9.70
2019-02-09T14:03:06.614Z,9.73
2019-02-09T14:05:35.219Z,9.78
2019-02-09T14:08:04.195Z,9.81
2019-02-09T14:10:32.676Z,9.82
2019-02-09T14:13:01.150Z,9.90
2019-02-09T14:15:32.222Z,9.96
2019-02-09T14:18:01.732Z,9.99
2019-02-09T14:20:30.294Z,10.07
2019-02-09T14:22:58.865Z,10.09
2019-02-09T14:25:27.460Z,10.07
2019-02-09T14:27:58.766Z,10.15
2019-02-09T14:30:29.740Z,10.16
2019-02-09T14:32:58.410Z,10.11
2019-02-09T14:35:26.844Z,10.17
2019-02-09T14:37:55.812Z,10.26
2019-02-09T14:40:27.357Z,10.32
2019-02-09T14:42:56.391Z,10.31
2019-02-09T14:45:27.897Z,10.36
2019-02-09T14:47:59.163Z,10.28
2019-02-09T14:50:27.761Z,10.33
2019-02-09T14:52:56.445Z,10.34
2019-02-09T14:55:30.882Z,10.31
2019-02-09T14:57:59.504Z,10.28
2019-02-09T15:00:40.233Z,10.23
2019-02-09T15:03:10.051Z,10.16
2019-02-09T15:05:40.223Z,10.13
2019-02-09T15:08:08.913Z,10.10
2019-02-09T15:10:37.415Z,10.11
2019-02-09T15:13:07.604Z,10.16
2019-02-09T15:15:39.063Z,10.12
2019-02-09T15:18:10.751Z,10.10
2019-02-09T15:20:45.040Z,10.13
2019-02-09T15:23:13.543Z,10.16
2019-02-09T15:25:42.098Z,10.06
2019-02-09T15:28:12.565Z,10.03
2019-02-09T15:30:40.906Z,10.04
2019-02-09T15:33:09.517Z,9.94
2019-02-09T15:35:38.088Z,9.83
2019-02-09T15:38:06.579Z,9.78
2019-02-09T15:40:35.160Z,9.71
2019-02-09T15:43:04.222Z,9.66
2019-02-09T15:45:32.883Z,9.12
2019-02-09T15:48:01.434Z,8.34
2019-02-09T15:50:29.974Z,7.62
2019-02-09T15:52:58.484Z,7.67
2019-02-09T15:55:27.143Z,7.50
2019-02-09T15:57:55.616Z,7.37
2019-02-09T16:00:33.866Z,7.36
2019-02-09T16:03:02.532Z,7.36
2019-02-09T16:05:31.006Z,7.22
2019-02-09T16:08:00.706Z,7.23
2019-02-09T16:10:29.215Z,7.24
2019-02-09T16:12:57.875Z,7.19
2019-02-09T16:15:30.887Z,7.16
2019-02-09T16:17:59.749Z,7.22
2019-02-09T16:20:36.037Z,7.20
2019-02-09T16:23:05.623Z,7.27
2019-02-09T16:25:34.631Z,7.30
2019-02-09T16:28:03.224Z,7.38
2019-02-09T16:30:31.837Z,7.41
2019-02-09T16:33:00.507Z,7.41
2019-02-09T16:35:31.309Z,7.35
2019-02-09T16:38:01.414Z,7.45
2019-02-09T16:40:31.843Z,7.46
2019-02-09T16:43:00.419Z,7.40
2019-02-09T16:45:40.070Z,7.43
2019-02-09T16:48:10.816Z,7.39
2019-02-09T16:50:39.382Z,7.47
2019-02-09T16:53:08.052Z,7.49
2019-02-09T16:55:36.760Z,7.48
2019-02-09T16:58:06.755Z,7.37
2019-02-09T17:00:38.224Z,7.34
2019-02-09T17:03:08.862Z,7.41
2019-02-09T17:05:37.423Z,7.38
2019-02-09T17:08:06.431Z,7.50
2019-02-09T17:10:35.017Z,7.51
2019-02-09T17:13:04.126Z,7.38
2019-02-09T17:15:32.835Z,7.53
2019-02-09T17:18:01.286Z,7.55
2019-02-09T17:20:29.812Z,7.65
2019-02-09T17:22:58.249Z,7.76
2019-02-09T17:25:27.115Z,7.83
2019-02-09T17:27:55.819Z,7.96
2019-02-09T17:30:35.781Z,7.91
2019-02-09T17:33:04.967Z,7.89
2019-02-09T17:35:33.580Z,7.75
2019-02-09T17:38:02.123Z,7.69
2019-02-09T17:40:39.868Z,7.72
2019-02-09T17:43:09.385Z,7.71
2019-02-09T17:45:52.730Z,7.68
2019-02-09T17:48:21.236Z,7.66
2019-02-09T17:50:49.785Z,7.57
2019-02-09T17:53:18.402Z,7.55
2019-02-09T17:55:47.079Z,7.48
2019-02-09T17:58:16.273Z,7.43
2019-02-09T18:00:50.387Z,7.39
2019-02-09T18:03:19.884Z,7.33
2019-02-09T18:05:48.387Z,7.28
2019-02-09T18:08:16.858Z,7.25
2019-02-09T18:10:45.349Z,7.20
2019-02-09T18:13:13.940Z,7.21
2019-02-09T18:15:42.487Z,7.16
2019-02-09T18:18:11.006Z,7.13
2019-02-09T18:20:39.551Z,7.15
2019-02-09T18:23:07.972Z,7.14
2019-02-09T18:25:36.541Z,7.17
2019-02-09T18:28:05.740Z,7.23
2019-02-09T18:30:35.147Z,7.22
2019-02-09T18:33:04.155Z,7.16
2019-02-09T18:35:32.715Z,7.13
2019-02-09T18:38:01.647Z,7.12
2019-02-09T18:40:32.248Z,7.15
2019-02-09T18:43:00.814Z,7.21
2019-02-09T18:45:31.359Z,7.15
2019-02-09T18:47:59.954Z,7.24
2019-02-09T18:50:32.445Z,7.26
2019-02-09T18:53:02.612Z,7.28
2019-02-09T18:55:32.343Z,7.34
2019-02-09T18:58:00.854Z,7.40
2019-02-09T19:00:35.939Z,7.38
2019-02-09T19:03:06.918Z,7.34
2019-02-09T19:05:35.468Z,7.41
2019-02-09T19:08:05.180Z,7.46
2019-02-09T19:10:33.688Z,7.49
2019-02-09T19:13:02.160Z,7.46
2019-02-09T19:15:31.280Z,7.51
2019-02-09T19:17:59.802Z,7.56
2019-02-09T19:20:40.386Z,7.52
2019-02-09T19:23:09.210Z,7.50
2019-02-09T19:25:37.764Z,7.43
2019-02-09T19:28:07.995Z,7.36
2019-02-09T19:30:37.552Z,7.31
2019-02-09T19:33:07.307Z,7.33
2019-02-09T19:35:36.788Z,7.24
2019-02-09T19:38:06.495Z,7.28
2019-02-09T19:40:35.276Z,7.26
2019-02-09T19:43:04.727Z,7.30
2019-02-09T19:45:38.828Z,7.29
2019-02-09T19:48:11.426Z,7.32
2019-02-09T19:50:40.273Z,7.34
2019-02-09T19:53:09.002Z,7.36
2019-02-09T19:55:37.937Z,7.41
2019-02-09T19:58:07.140Z,7.45
2019-02-09T20:00:41.489Z,7.39
2019-02-09T20:03:09.946Z,7.34
2019-02-09T20:05:38.443Z,7.39
2019-02-09T20:08:08.644Z,7.33
2019-02-09T20:10:39.978Z,7.37
2019-02-09T20:13:11.344Z,7.37
2019-02-09T20:15:50.585Z,7.36
2019-02-09T20:18:19.074Z,7.30
2019-02-09T20:20:48.533Z,7.32
2019-02-09T20:23:18.587Z,7.45
2019-02-09T20:25:47.210Z,7.40
2019-02-09T20:28:15.802Z,7.37
2019-02-09T20:30:44.597Z,7.48
2019-02-09T20:33:13.189Z,7.45
2019-02-09T20:35:41.861Z,7.46
2019-02-09T20:38:10.585Z,7.33
2019-02-09T20:40:41.843Z,7.43
2019-02-09T20:43:13.073Z,7.44
2019-02-09T20:45:41.596Z,7.47
2019-02-09T20:48:10.295Z,7.49
2019-02-09T20:50:39.009Z,7.61
2019-02-09T20:53:08.406Z,7.59
2019-02-09T20:55:36.969Z,7.71
2019-02-09T20:58:07.507Z,7.68
2019-02-09T21:00:35.997Z,7.57
2019-02-09T21:03:05.321Z,7.62
2019-02-09T21:05:36.710Z,7.62
2019-02-09T21:08:05.218Z,7.61
2019-02-09T21:10:39.369Z,7.57
2019-02-09T21:13:07.898Z,7.64
2019-02-09T21:15:36.497Z,7.67
2019-02-09T21:18:06.583Z,7.58
2019-02-09T21:20:35.319Z,7.62
2019-02-09T21:23:03.990Z,7.63
2019-02-09T21:25:36.266Z,7.64
2019-02-09T21:28:05.071Z,7.63
2019-02-09T21:30:33.633Z,7.64
2019-02-09T21:33:02.724Z,7.59
2019-02-09T21:35:31.303Z,7.56
2019-02-09T21:37:59.854Z,7.57
2019-02-09T21:40:33.582Z,7.56
2019-02-09T21:43:02.608Z,7.55
2019-02-09T21:45:31.170Z,7.51
2019-02-09T21:47:59.811Z,7.49
2019-02-09T21:50:38.587Z,7.57
2019-02-09T21:53:08.508Z,7.61
2019-02-09T21:55:37.501Z,7.62
2019-02-09T21:58:08.205Z,7.59
2019-02-09T22:00:39.299Z,7.60
2019-02-09T22:03:09.524Z,7.52
2019-02-09T22:05:38.303Z,7.56
2019-02-09T22:08:08.920Z,7.49
2019-02-09T22:10:37.506Z,7.44
2019-02-09T22:13:15.760Z,7.43
2019-02-09T22:15:51.023Z,7.35
2019-02-09T22:18:27.115Z,7.41
2019-02-09T22:20:55.609Z,7.34
2019-02-09T22:23:32.936Z,7.32
2019-02-09T22:26:00.471Z,7.31
2019-02-09T22:28:38.799Z,7.23
2019-02-09T22:31:07.438Z,7.22
2019-02-09T22:33:35.956Z,7.14
2019-02-09T22:36:04.612Z,7.14
2019-02-09T22:38:33.832Z,7.16
2019-02-09T22:41:02.296Z,7.14
2019-02-09T22:43:30.759Z,7.15
2019-02-09T22:45:59.501Z,7.12
2019-02-09T22:48:28.016Z,7.16
2019-02-09T22:50:56.513Z,7.18
2019-02-09T22:53:25.729Z,7.20
2019-02-09T22:55:54.164Z,7.12
2019-02-09T22:58:22.747Z,7.15
2019-02-09T23:01:18.336Z,7.24
2019-02-09T23:03:52.601Z,7.32
2019-02-09T23:06:35.790Z,7.41
2019-02-09T23:09:07.183Z,7.42
2019-02-09T23:11:35.617Z,7.52
2019-02-09T23:14:04.199Z,7.55
2019-02-09T23:16:32.680Z,7.49
2019-02-09T23:19:01.184Z,7.55
2019-02-09T23:21:29.716Z,7.54
2019-02-09T23:23:58.182Z,7.53
2019-02-09T23:26:26.617Z,7.52
2019-02-09T23:28:55.101Z,7.51
2019-02-09T23:31:23.564Z,7.50
2019-02-09T23:33:51.987Z,7.50
2019-02-09T23:36:20.427Z,7.49
2019-02-09T23:38:48.867Z,7.51
2019-02-09T23:41:20.571Z,7.50
2019-02-09T23:43:49.191Z,7.48
2019-02-09T23:46:17.893Z,7.55
2019-02-09T23:48:47.170Z,7.51
2019-02-09T23:51:17.217Z,7.52
2019-02-09T23:53:45.688Z,7.55
2019-02-09T23:56:14.151Z,7.58
2019-02-09T23:58:42.609Z,7.66
